Time;durP1;ratioP1;P1;durP2;ratioP2;P2;SDS_P1;SDS_P2;PMS_P1;PMS_P2;Temp;Humidity;BMP_temperature;BMP_pressure;BME280_temperature;BME280_humidity;BME280_pressure;Samples;Min_cycle;Max_cycle;Signal;HPM_P1;HPM_P2
2023/11/05 00:00:30;;;;;;;3.25;1.60;;;;;;;6.19;100.00;94014.91;5035439;28;20398;-78
2023/11/05 00:02:56;;;;;;;4.80;1.42;;;;;;;6.22;100.00;94024.81;5024937;28;20508;-78
2023/11/05 00:05:22;;;;;;;2.30;1.60;;;;;;;6.20;100.00;94021.72;5035513;28;20410;-78
2023/11/05 00:07:49;;;;;;;3.67;1.50;;;;;;;6.19;100.00;94037.75;5034850;28;20525;-78
2023/11/05 00:10:15;;;;;;;2.70;1.33;;;;;;;6.19;100.00;94024.63;5035696;28;20421;-78
2023/11/05 00:12:41;;;;;;;2.72;1.38;;;;;;;6.19;100.00;94016.75;5035572;28;20422;-78
2023/11/05 00:15:09;;;;;;;2.05;1.30;;;;;;;6.16;100.00;94006.88;5035556;28;20437;-78
2023/11/05 00:17:36;;;;;;;4.03;1.65;;;;;;;6.16;100.00;94005.00;5023417;28;20411;-78
2023/11/05 00:20:06;;;;;;;2.55;1.30;;;;;;;6.14;100.00;94006.41;4998492;28;20433;-79
2023/11/05 00:22:33;;;;;;;2.97;1.20;;;;;;;6.12;100.00;94003.31;5016926;28;20489;-78
2023/11/05 00:24:59;;;;;;;3.00;1.33;;;;;;;6.15;100.00;93998.22;5017824;28;20408;-78
2023/11/05 00:27:25;;;;;;;1.38;1.25;;;;;;;6.18;100.00;93991.56;5017079;28;20397;-78
2023/11/05 00:29:51;;;;;;;1.30;1.20;;;;;;;6.25;100.00;93978.00;5018198;28;20436;-78
2023/11/05 00:32:18;;;;;;;2.60;1.35;;;;;;;6.24;100.00;93986.97;5020448;28;20400;-77
2023/11/05 00:34:45;;;;;;;1.30;1.20;;;;;;;6.24;100.00;93986.97;5036666;28;20402;-79
2023/11/05 00:37:11;;;;;;;3.53;1.20;;;;;;;6.19;100.00;93975.53;5026356;28;20404;-78
2023/11/05 00:39:37;;;;;;;1.70;1.30;;;;;;;6.17;100.00;93984.78;5017919;28;20416;-78
2023/11/05 00:42:04;;;;;;;3.25;1.30;;;;;;;6.13;100.00;93984.63;5016795;28;20409;-78
2023/11/05 00:44:30;;;;;;;1.33;1.23;;;;;;;6.14;100.00;93970.41;5024936;28;20394;-79
2023/11/05 00:46:56;;;;;;;1.23;1.10;;;;;;;6.10;100.00;93964.22;5036298;28;20867;-79
2023/11/05 00:49:24;;;;;;;1.30;1.20;;;;;;;6.06;100.00;93955.41;5035732;28;20415;-78
2023/11/05 00:51:50;;;;;;;1.60;1.40;;;;;;;6.04;100.00;93962.81;5035924;28;20664;-79
2023/11/05 00:54:16;;;;;;;2.00;1.00;;;;;;;6.03;100.00;93955.25;5036877;28;20407;-78
2023/11/05 00:56:42;;;;;;;1.00;1.00;;;;;;;6.00;100.00;93945.38;5040127;28;20401;-79
2023/11/05 00:59:08;;;;;;;1.77;1.00;;;;;;;5.99;100.00;93943.81;5039171;28;20395;-78
2023/11/05 01:01:34;;;;;;;1.50;1.10;;;;;;;5.98;100.00;93942.28;5025725;28;20455;-79
2023/11/05 01:04:00;;;;;;;1.33;1.15;;;;;;;6.03;100.00;93937.66;5019936;28;20496;-78
2023/11/05 01:06:28;;;;;;;2.30;1.20;;;;;;;6.05;100.00;93945.22;5020861;28;20845;-78
2023/11/05 01:08:54;;;;;;;1.48;1.10;;;;;;;6.01;100.00;93946.91;5020532;28;20784;-80
2023/11/05 01:11:20;;;;;;;1.90;1.10;;;;;;;5.96;100.00;93937.31;5023189;28;20443;-79
2023/11/05 01:13:46;;;;;;;1.15;1.08;;;;;;;5.92;100.00;93933.78;5019526;28;20455;-79
2023/11/05 01:16:13;;;;;;;1.23;1.00;;;;;;;5.90;100.00;93924.66;5019040;28;20401;-79
2023/11/05 01:18:39;;;;;;;2.13;1.20;;;;;;;5.85;100.00;93928.16;5020467;28;20424;-78
2023/11/05 01:21:05;;;;;;;3.13;1.23;;;;;;;5.87;100.00;93912.09;5020524;28;20416;-78
2023/11/05 01:23:33;;;;;;;2.15;1.10;;;;;;;5.90;100.00;93928.06;5021096;28;20396;-79
2023/11/05 01:25:59;;;;;;;4.15;1.30;;;;;;;5.95;100.00;93908.75;5021966;28;20903;-78
2023/11/05 01:28:25;;;;;;;1.60;1.17;;;;;;;6.04;100.00;93901.66;5020327;28;20401;-78
2023/11/05 01:30:51;;;;;;;1.75;1.10;;;;;;;6.08;100.00;93894.72;5019139;28;20459;-78
2023/11/05 01:33:17;;;;;;;1.30;1.20;;;;;;;6.06;100.00;93904.75;5020050;28;20865;-78
2023/11/05 01:35:44;;;;;;;1.63;1.00;;;;;;;6.00;100.00;93908.63;5002097;28;20463;-78
2023/11/05 01:38:10;;;;;;;4.38;1.23;;;;;;;5.95;100.00;93893.00;5020121;28;20459;-78
2023/11/05 01:40:37;;;;;;;1.60;1.20;;;;;;;6.02;100.00;93901.97;5019807;28;20424;-79
2023/11/05 01:43:03;;;;;;;1.30;1.20;;;;;;;6.07;100.00;93895.81;5021887;28;20412;-78
2023/11/05 01:45:30;;;;;;;2.55;1.20;;;;;;;6.06;100.00;93887.16;5040883;28;20728;-78
2023/11/05 01:47:56;;;;;;;3.78;1.20;;;;;;;6.04;100.00;93878.81;5043529;28;20405;-78
2023/11/05 01:50:23;;;;;;;3.45;1.40;;;;;;;6.05;100.00;93880.34;5039450;28;20791;-78
2023/11/05 01:52:54;;;;;;;3.30;1.20;;;;;;;6.10;100.00;93868.91;5039343;28;20756;-78
2023/11/05 01:55:21;;;;;;;2.50;1.10;;;;;;;6.13;100.00;93870.94;5038777;28;20391;-78
2023/11/05 01:57:49;;;;;;;2.90;1.30;;;;;;;6.12;100.00;93851.00;5038482;28;20395;-78
2023/11/05 02:00:16;;;;;;;2.97;1.30;;;;;;;6.13;100.00;93850.72;5038442;28;20407;-78
2023/11/05 02:02:42;;;;;;;1.20;1.00;;;;;;;6.15;100.00;93855.66;5037879;28;20940;-78
2023/11/05 02:05:09;;;;;;;7.55;1.70;;;;;;;6.10;100.00;93843.44;5021073;28;20426;-77
2023/11/05 02:07:36;;;;;;;2.05;1.20;;;;;;;6.19;100.00;93849.47;5039032;28;20391;-77
2023/11/05 02:10:03;;;;;;;10.30;1.40;;;;;;;6.17;100.00;93848.22;5038646;28;20419;-78
2023/11/05 02:12:29;;;;;;;2.17;1.20;;;;;;;6.26;100.00;93840.34;5041995;28;20482;-78
2023/11/05 02:14:57;;;;;;;3.17;1.10;;;;;;;6.29;100.00;93830.00;5037308;28;20935;-78
2023/11/05 02:17:23;;;;;;;3.08;1.10;;;;;;;6.28;100.00;93825.06;5037553;28;20875;-78
2023/11/05 02:19:51;;;;;;;1.27;1.10;;;;;;;6.26;100.00;93817.47;5020018;28;20434;-78
2023/11/05 02:22:19;;;;;;;4.97;1.17;;;;;;;6.22;100.00;93809.47;5036751;28;20787;-78
2023/11/05 02:24:47;;;;;;;2.05;1.20;;;;;;;6.26;100.00;93803.59;5036292;28;20947;-78
2023/11/05 02:27:13;;;;;;;4.75;1.27;;;;;;;6.25;100.00;93802.03;5036618;28;20496;-77
2023/11/05 02:29:39;;;;;;;2.45;1.25;;;;;;;6.21;100.00;93794.03;5036322;28;20411;-78
2023/11/05 02:32:06;;;;;;;2.63;1.40;;;;;;;6.23;100.00;93789.25;5035243;28;20449;-78
2023/11/05 02:34:32;;;;;;;3.17;1.10;;;;;;;6.23;100.00;93776.09;5016136;28;20443;-78
2023/11/05 02:36:59;;;;;;;1.63;1.10;;;;;;;6.22;100.00;93777.97;5016343;28;20451;-78
2023/11/05 02:39:25;;;;;;;4.53;1.00;;;;;;;6.22;100.00;93769.31;5017075;28;20403;-77
2023/11/05 02:41:53;;;;;;;4.78;1.45;;;;;;;6.25;100.00;93765.28;5016219;28;20397;-78
2023/11/05 02:44:19;;;;;;;3.92;1.30;;;;;;;6.33;100.00;93761.84;5027169;28;20399;-78
2023/11/05 02:46:45;;;;;;;5.22;1.50;;;;;;;6.32;100.00;93758.47;5037445;28;20395;-77
2023/11/05 02:49:12;;;;;;;3.08;1.10;;;;;;;6.41;100.00;93763.69;5020138;28;20430;-78
2023/11/05 02:51:38;;;;;;;1.20;1.10;;;;;;;6.38;100.00;93773.00;5037812;28;20490;-77
2023/11/05 02:54:04;;;;;;;5.13;1.55;;;;;;;6.36;100.00;93753.38;5037273;28;20407;-78
2023/11/05 02:56:31;;;;;;;3.60;1.20;;;;;;;6.37;100.00;93747.81;5038904;28;20419;-77
2023/11/05 02:58:58;;;;;;;2.20;1.10;;;;;;;6.33;100.00;93746.09;5038330;28;20842;-79
2023/11/05 03:01:27;;;;;;;2.67;1.23;;;;;;;6.37;100.00;93747.03;5041688;28;20438;-78
2023/11/05 03:03:53;;;;;;;2.80;1.20;;;;;;;6.38;100.00;93745.94;5046725;28;20406;-79
2023/11/05 03:06:20;;;;;;;6.70;1.40;;;;;;;6.33;100.00;93739.00;5037946;28;20395;-78
2023/11/05 03:08:46;;;;;;;4.35;1.20;;;;;;;6.32;100.00;93740.06;5035810;28;20402;-78
2023/11/05 03:11:12;;;;;;;12.00;1.73;;;;;;;6.26;100.00;93722.94;5036666;28;20418;-78
2023/11/05 03:13:38;;;;;;;3.42;1.20;;;;;;;6.35;100.00;93728.94;5035185;28;20427;-78
2023/11/05 03:16:11;;;;;;;3.55;1.30;;;;;;;6.37;100.00;93710.25;5035020;28;20399;-79
2023/11/05 03:18:39;;;;;;;3.85;1.30;;;;;;;6.35;100.00;93723.69;5035622;28;20393;-77
2023/11/05 03:21:05;;;;;;;5.82;1.30;;;;;;;6.34;100.00;93722.16;5035537;28;20567;-78
2023/11/05 03:23:31;;;;;;;3.28;1.25;;;;;;;6.35;100.00;93718.44;5035415;28;20395;-78
2023/11/05 03:25:57;;;;;;;4.10;1.10;;;;;;;6.40;100.00;93720.13;5035386;28;20725;-78
2023/11/05 03:28:23;;;;;;;3.67;1.33;;;;;;;6.44;100.00;93711.31;5036722;28;20470;-79
2023/11/05 03:30:50;;;;;;;5.05;1.42;;;;;;;6.44;100.00;93707.91;5035690;28;20464;-78
2023/11/05 03:33:17;;;;;;;4.20;1.30;;;;;;;6.44;100.00;93705.28;5025844;28;20931;-78
2023/11/05 03:35:43;;;;;;;2.25;1.10;;;;;;;6.42;100.00;93713.47;5016729;28;20408;-78
2023/11/05 03:38:10;;;;;;;2.60;1.25;;;;;;;6.40;100.00;93713.00;5017437;28;20435;-78
2023/11/05 03:40:36;;;;;;;5.75;1.60;;;;;;;6.29;100.00;93698.69;5018543;28;20409;-79
2023/11/05 03:43:02;;;;;;;4.63;1.38;;;;;;;6.35;100.00;93704.53;5020151;28;20409;-78
2023/11/05 03:45:28;;;;;;;9.18;2.10;;;;;;;6.33;100.00;93701.44;5037183;28;20406;-78
2023/11/05 03:47:55;;;;;;;3.85;1.30;;;;;;;6.37;100.00;93705.00;5041715;28;20836;-78
2023/11/05 03:50:23;;;;;;;3.55;1.55;;;;;;;6.36;100.00;93709.50;5034224;28;20465;-78
2023/11/05 03:52:49;;;;;;;9.63;1.73;;;;;;;6.31;100.00;93712.28;5034910;28;20441;-77
2023/11/05 03:55:16;;;;;;;6.30;1.37;;;;;;;6.36;100.00;93709.50;5035414;28;20498;-78
2023/11/05 03:57:42;;;;;;;1.92;1.40;;;;;;;6.31;100.00;93712.28;5035714;28;20399;-78
2023/11/05 04:00:09;;;;;;;3.13;1.20;;;;;;;6.28;100.00;93706.88;5035331;28;20424;-78
2023/11/05 04:02:35;;;;;;;4.40;1.30;;;;;;;6.24;100.00;93711.97;5035330;28;20434;-79
2023/11/05 04:05:02;;;;;;;5.38;1.40;;;;;;;6.18;100.00;93702.72;5036127;28;20395;-79
2023/11/05 04:07:29;;;;;;;5.68;1.48;;;;;;;6.15;100.00;93692.88;5035415;28;20395;-78
2023/11/05 04:09:55;;;;;;;4.50;1.27;;;;;;;6.14;100.00;93699.97;5033284;28;20459;-78
2023/11/05 04:12:22;;;;;;;2.28;1.10;;;;;;;6.12;100.00;93701.34;5033050;28;20395;-79
2023/11/05 04:14:48;;;;;;;1.75;1.20;;;;;;;6.07;100.00;93699.69;5032742;28;20426;-78
2023/11/05 04:17:14;;;;;;;3.40;1.30;;;;;;;6.04;100.00;93710.78;5033016;28;20776;-78
2023/11/05 04:19:40;;;;;;;2.80;1.10;;;;;;;6.01;100.00;93706.19;5034732;28;20816;-79
2023/11/05 04:22:07;;;;;;;8.25;1.50;;;;;;;5.96;100.00;93697.69;5036327;28;20582;-78
2023/11/05 04:24:34;;;;;;;4.78;1.30;;;;;;;6.04;100.00;93704.78;5035468;28;20503;-78
2023/11/05 04:27:00;;;;;;;5.30;1.58;;;;;;;6.15;100.00;93696.25;5033390;28;20441;-77
2023/11/05 04:29:26;;;;;;;2.47;1.30;;;;;;;6.19;100.00;93697.16;5033031;28;20395;-79
2023/11/05 04:31:55;;;;;;;2.47;1.20;;;;;;;6.19;100.00;93697.16;5033340;28;20418;-78
2023/11/05 04:34:21;;;;;;;6.82;1.38;;;;;;;6.16;100.00;93695.16;5036342;28;20463;-77
2023/11/05 04:36:48;;;;;;;5.35;1.48;;;;;;;6.26;100.00;93695.91;5033572;28;20399;-78
2023/11/05 04:39:14;;;;;;;3.90;1.35;;;;;;;6.32;100.00;93708.56;5032481;28;20398;-79
2023/11/05 04:41:41;;;;;;;3.67;1.30;;;;;;;6.34;100.00;93705.63;5032780;28;20498;-78
2023/11/05 04:44:07;;;;;;;3.50;1.20;;;;;;;6.30;100.00;93697.63;5032510;28;20398;-77
2023/11/05 04:46:38;;;;;;;2.20;1.20;;;;;;;6.25;100.00;93697.75;5032801;28;20407;-79
2023/11/05 04:49:05;;;;;;;2.10;1.10;;;;;;;6.26;100.00;93695.91;5033012;28;20413;-78
2023/11/05 04:51:31;;;;;;;1.90;1.20;;;;;;;6.24;100.00;93696.22;5033012;28;20488;-77
2023/11/05 04:53:57;;;;;;;5.10;1.25;;;;;;;6.25;100.00;93705.63;5032268;28;20395;-77
2023/11/05 04:56:23;;;;;;;12.23;2.35;;;;;;;6.25;100.00;93694.38;5032263;28;20426;-78
2023/11/05 04:58:51;;;;;;;9.77;1.90;;;;;;;6.21;100.00;93697.63;5032002;28;20468;-78
2023/11/05 05:01:17;;;;;;;5.95;1.60;;;;;;;6.34;100.00;93703.75;5031914;28;20466;-78
2023/11/05 05:03:43;;;;;;;2.15;1.20;;;;;;;6.41;100.00;93711.16;5031775;28;20391;-78
2023/11/05 05:06:09;;;;;;;2.28;1.20;;;;;;;6.42;100.00;93702.19;5031939;28;20431;-78
2023/11/05 05:08:35;;;;;;;4.60;1.50;;;;;;;6.40;100.00;93697.25;5031883;28;20867;-78
2023/11/05 05:11:02;;;;;;;3.85;1.38;;;;;;;6.37;100.00;93711.03;5033573;28;20427;-78
2023/11/05 05:13:28;;;;;;;2.50;1.17;;;;;;;6.34;100.00;93709.03;5032629;28;20445;-78
2023/11/05 05:15:56;;;;;;;4.78;1.42;;;;;;;6.31;100.00;93709.66;5033679;28;20762;-78
2023/11/05 05:18:22;;;;;;;6.13;1.40;;;;;;;6.38;100.00;93719.69;5035716;28;20399;-77
2023/11/05 05:20:48;;;;;;;2.60;1.30;;;;;;;6.39;100.00;93714.09;5035730;28;20413;-76
2023/11/05 05:23:14;;;;;;;1.92;1.10;;;;;;;6.41;100.00;93732.94;5016105;28;20415;-78
2023/11/05 05:25:40;;;;;;;4.60;1.17;;;;;;;6.47;100.00;93720.41;5032214;28;20395;-77
2023/11/05 05:28:06;;;;;;;2.78;1.27;;;;;;;6.50;100.00;93738.19;5034391;28;20458;-78
2023/11/05 05:30:33;;;;;;;2.25;1.20;;;;;;;6.46;100.00;93738.06;5018990;28;20423;-78
2023/11/05 05:33:00;;;;;;;3.80;1.38;;;;;;;6.47;100.00;93739.56;5038594;28;20396;-79
2023/11/05 05:35:26;;;;;;;3.33;1.27;;;;;;;6.51;100.00;93729.22;5039071;28;20974;-79
2023/11/05 05:37:52;;;;;;;4.30;1.40;;;;;;;6.46;100.00;93729.41;5037998;28;20442;-77
2023/11/05 05:40:19;;;;;;;3.80;1.33;;;;;;;6.38;100.00;93730.97;5034034;28;20529;-78
2023/11/05 05:42:45;;;;;;;4.55;1.40;;;;;;;6.27;100.00;93716.59;5034599;28;20390;-78
2023/11/05 05:45:12;;;;;;;4.45;1.70;;;;;;;6.30;100.00;93744.13;5037781;28;20403;-79
2023/11/05 05:47:40;;;;;;;2.13;1.13;;;;;;;6.31;100.00;93743.03;5037722;28;20395;-78
2023/11/05 05:50:08;;;;;;;2.00;1.20;;;;;;;6.26;100.00;93749.22;5037975;28;20505;-78
2023/11/05 05:52:34;;;;;;;1.60;1.10;;;;;;;6.25;100.00;93750.28;5037399;28;20871;-78
2023/11/05 05:55:04;;;;;;;2.00;1.08;;;;;;;6.21;100.00;93749.38;5037510;28;20434;-78
2023/11/05 05:57:30;;;;;;;2.63;1.40;;;;;;;6.16;100.00;93760.81;5037309;28;20401;-79
2023/11/05 05:59:56;;;;;;;1.25;1.10;;;;;;;6.11;100.00;93757.56;5037207;28;20453;-78
2023/11/05 06:02:23;;;;;;;2.78;1.00;;;;;;;6.02;100.00;93752.31;5036744;28;20871;-79
2023/11/05 06:04:50;;;;;;;1.40;1.07;;;;;;;5.97;100.00;93756.97;5036826;28;20884;-78
2023/11/05 06:07:17;;;;;;;2.67;1.20;;;;;;;5.92;100.00;93755.28;5034192;28;20399;-79
2023/11/05 06:09:43;;;;;;;1.60;1.30;;;;;;;5.89;100.00;93758.53;5028590;28;20628;-78
2023/11/05 06:12:09;;;;;;;2.22;1.02;;;;;;;5.88;100.00;93756.97;5029839;28;20402;-78
2023/11/05 06:14:36;;;;;;;2.22;1.20;;;;;;;5.91;100.00;93761.63;5025946;28;20816;-79
2023/11/05 06:17:02;;;;;;;2.25;1.08;;;;;;;5.92;100.00;93765.00;5032064;28;20403;-78
2023/11/05 06:19:28;;;;;;;4.10;1.30;;;;;;;5.92;100.00;93757.91;5035582;28;20775;-78
2023/11/05 06:21:54;;;;;;;2.73;1.20;;;;;;;5.96;100.00;93758.81;5041355;28;20887;-78
2023/11/05 06:24:22;;;;;;;6.57;1.70;;;;;;;6.01;100.00;93765.78;5040770;28;20439;-76
2023/11/05 06:26:48;;;;;;;2.13;1.30;;;;;;;6.07;100.00;93757.44;5037232;28;20429;-78
2023/11/05 06:29:14;;;;;;;5.80;1.60;;;;;;;6.16;100.00;93760.81;5036920;28;20445;-78
2023/11/05 06:31:40;;;;;;;4.60;1.27;;;;;;;6.26;100.00;93754.47;5023222;28;20424;-79
2023/11/05 06:34:07;;;;;;;4.35;1.38;;;;;;;6.32;100.00;93755.84;5030935;28;20412;-82
2023/11/05 06:36:33;;;;;;;3.80;1.10;;;;;;;6.40;100.00;93762.91;5034703;28;20410;-82
2023/11/05 06:38:59;;;;;;;3.47;1.13;;;;;;;6.45;100.00;93764.63;5034020;28;20464;-82
2023/11/05 06:41:26;;;;;;;2.50;1.13;;;;;;;6.45;100.00;93754.13;5048229;28;20399;-81
2023/11/05 06:43:53;;;;;;;1.20;1.00;;;;;;;6.44;100.00;93757.81;5034571;28;20910;-80
2023/11/05 06:46:19;;;;;;;3.85;1.25;;;;;;;6.42;100.00;93770.50;5033575;28;20838;-80
2023/11/05 06:48:45;;;;;;;2.00;1.15;;;;;;;6.50;100.00;93770.47;5036806;28;20396;-81
2023/11/05 06:51:11;;;;;;;7.50;1.60;;;;;;;6.48;100.00;93780.53;5034732;28;20763;-80
2023/11/05 06:53:37;;;;;;;1.55;1.30;;;;;;;6.63;100.00;93781.88;5028322;28;20399;-80
2023/11/05 06:56:04;;;;;;;2.92;1.20;;;;;;;6.71;100.00;93790.81;5033167;28;21331;-79
2023/11/05 06:58:32;;;;;;;1.40;1.10;;;;;;;6.72;100.00;93795.00;5034924;28;20398;-80
2023/11/05 07:00:58;;;;;;;2.07;1.20;;;;;;;6.72;100.00;93798.38;5029683;28;20438;-80
2023/11/05 07:03:24;;;;;;;1.25;1.08;;;;;;;6.74;100.00;93805.97;5035648;28;20403;-80
2023/11/05 07:05:51;;;;;;;2.40;1.07;;;;;;;6.74;100.00;93811.22;5033647;28;20449;-78
2023/11/05 07:08:17;;;;;;;3.15;1.40;;;;;;;6.76;100.00;93812.47;5030298;28;20399;-78
2023/11/05 07:10:44;;;;;;;3.40;1.10;;;;;;;6.82;100.00;93810.44;5030743;28;20435;-79
2023/11/05 07:13:10;;;;;;;1.55;1.10;;;;;;;6.91;100.00;93811.94;5028872;28;20397;-79
2023/11/05 07:15:38;;;;;;;1.33;1.10;;;;;;;6.97;100.00;93808.06;5033741;28;20395;-77
2023/11/05 07:18:06;;;;;;;3.88;1.10;;;;;;;6.95;100.00;93812.06;5030692;28;20408;-78
2023/11/05 07:20:32;;;;;;;2.13;1.20;;;;;;;7.03;100.00;93810.50;5031770;28;20399;-80
2023/11/05 07:22:59;;;;;;;1.57;1.20;;;;;;;7.02;100.00;93812.34;5032288;28;20844;-77
2023/11/05 07:25:25;;;;;;;1.13;1.00;;;;;;;7.07;100.00;93814.06;5034346;28;20403;-80
2023/11/05 07:27:51;;;;;;;1.60;1.00;;;;;;;7.10;100.00;93814.19;5033745;28;20414;-81
2023/11/05 07:30:17;;;;;;;2.90;1.00;;;;;;;7.17;100.00;93816.31;5032694;28;20422;-80
2023/11/05 07:32:47;;;;;;;3.78;1.27;;;;;;;7.22;100.00;93837.16;5031039;28;20861;-80
2023/11/05 07:35:13;;;;;;;1.00;1.00;;;;;;;7.34;100.00;93826.78;5037375;28;20399;-78
2023/11/05 07:37:39;;;;;;;1.02;1.00;;;;;;;7.49;100.00;93830.72;5037719;28;20414;-80
2023/11/05 07:40:06;;;;;;;1.73;1.00;;;;;;;7.61;100.00;93838.69;5022489;28;20447;-78
2023/11/05 07:42:32;;;;;;;3.60;1.00;;;;;;;7.71;100.00;93835.69;5039233;28;20433;-81
2023/11/05 07:44:59;;;;;;;0.90;0.90;;;;;;;7.79;100.00;93832.25;5030206;28;20465;-83
2023/11/05 07:47:25;;;;;;;1.67;1.05;;;;;;;7.81;100.00;93830.06;5041931;28;20408;-82
2023/11/05 07:49:52;;;;;;;2.55;1.00;;;;;;;7.91;100.00;93834.94;5054143;28;20399;-79
2023/11/05 07:52:18;;;;;;;1.38;0.88;;;;;;;7.94;100.00;93830.91;5047703;28;20403;-81
2023/11/05 07:54:44;;;;;;;1.40;1.15;;;;;;;7.92;100.00;93847.00;5029766;28;20406;-80
2023/11/05 07:57:10;;;;;;;2.40;0.93;;;;;;;7.99;100.00;93846.50;5033495;28;20403;-79
2023/11/05 07:59:37;;;;;;;1.15;1.00;;;;;;;8.07;100.00;93851.72;5035869;28;20391;-80
2023/11/05 08:02:03;;;;;;;2.67;1.08;;;;;;;8.13;100.00;93863.59;5032244;28;20414;-80
2023/11/05 08:04:29;;;;;;;3.85;1.02;;;;;;;8.21;100.00;93856.72;5033411;28;20410;-78
2023/11/05 08:06:57;;;;;;;1.15;0.90;;;;;;;8.42;100.00;93867.31;5033224;28;20395;-79
2023/11/05 08:09:23;;;;;;;1.42;0.90;;;;;;;8.62;100.00;93869.13;5037070;28;20406;-79
2023/11/05 08:11:50;;;;;;;0.80;0.80;;;;;;;8.71;100.00;93884.88;5031418;28;20420;-78
2023/11/05 08:14:16;;;;;;;1.20;0.90;;;;;;;8.90;100.00;93900.97;5033743;28;20391;-79
2023/11/05 08:16:42;;;;;;;1.08;0.90;;;;;;;9.05;100.00;93907.50;5033614;28;20403;-77
2023/11/05 08:19:09;;;;;;;0.80;0.80;;;;;;;9.28;100.00;93908.66;5031999;28;20411;-78
2023/11/05 08:21:35;;;;;;;1.77;1.00;;;;;;;9.31;100.00;93911.44;5035006;28;20399;-79
2023/11/05 08:24:03;;;;;;;0.75;0.70;;;;;;;9.23;100.00;93929.97;5035819;28;20403;-78
2023/11/05 08:26:29;;;;;;;0.90;0.80;;;;;;;9.14;100.00;93945.91;5036645;28;20410;-80
2023/11/05 08:28:55;;;;;;;1.23;0.80;;;;;;;8.99;100.00;93949.16;5035105;28;20395;-79
2023/11/05 08:31:22;;;;;;;1.08;0.80;;;;;;;8.85;100.00;93953.94;5036076;28;20450;-79
2023/11/05 08:33:48;;;;;;;2.17;0.93;;;;;;;8.80;100.00;93967.28;5033227;28;20403;-79
2023/11/05 08:36:15;;;;;;;1.10;0.90;;;;;;;9.01;100.00;93975.22;5032040;28;20425;-78
2023/11/05 08:38:42;;;;;;;1.00;0.90;;;;;;;9.29;100.00;93952.44;5039801;28;20837;-80
2023/11/05 08:41:09;;;;;;;0.80;0.80;;;;;;;9.61;100.00;93987.81;5041675;28;20418;-79
2023/11/05 08:43:35;;;;;;;0.98;0.80;;;;;;;9.91;100.00;93988.41;5019137;28;20521;-79
2023/11/05 08:46:01;;;;;;;1.17;0.90;;;;;;;9.97;100.00;93993.13;5033815;28;20413;-78
2023/11/05 08:48:28;;;;;;;1.50;0.70;;;;;;;10.29;100.00;93998.69;5033602;28;20403;-80
2023/11/05 08:50:54;;;;;;;6.13;1.30;;;;;;;10.45;100.00;94002.16;5032667;28;20457;-77
2023/11/05 08:53:23;;;;;;;1.58;0.77;;;;;;;10.47;100.00;94013.19;5031872;28;20399;-78
2023/11/05 08:55:49;;;;;;;1.15;0.75;;;;;;;10.63;100.00;93992.13;5024611;28;20412;-78
2023/11/05 08:58:17;;;;;;;2.53;0.80;;;;;;;10.79;100.00;94012.28;5025107;28;20478;-78
2023/11/05 09:00:43;;;;;;;1.25;0.80;;;;;;;10.68;100.00;94008.53;5023418;28;20727;-79
2023/11/05 09:03:11;;;;;;;0.88;0.70;;;;;;;10.79;100.00;94020.22;5026858;28;20417;-79
2023/11/05 09:05:37;;;;;;;1.17;0.70;;;;;;;10.97;100.00;94030.53;5031182;28;20405;-79
2023/11/05 09:08:04;;;;;;;2.95;0.70;;;;;;;11.05;100.00;94038.31;5028746;28;20817;-79
2023/11/05 09:10:30;;;;;;;0.90;0.70;;;;;;;11.22;100.00;94032.00;5030733;28;20463;-78
2023/11/05 09:12:59;;;;;;;2.10;0.60;;;;;;;11.17;100.00;94035.66;5024411;28;20456;-78
2023/11/05 09:15:27;;;;;;;1.80;0.98;;;;;;;11.16;100.00;94050.00;5026776;28;20435;-78
2023/11/05 09:17:53;;;;;;;3.88;0.95;;;;;;;11.13;100.00;94055.94;5030121;28;20395;-78
2023/11/05 09:20:19;;;;;;;1.00;0.83;;;;;;;11.25;100.00;94044.56;5035861;28;20433;-78
2023/11/05 09:22:46;;;;;;;1.48;0.80;;;;;;;11.36;100.00;94066.03;5030364;28;20432;-77
2023/11/05 09:25:12;;;;;;;3.03;0.88;;;;;;;11.18;100.00;94076.91;5031870;28;20490;-79
2023/11/05 09:27:39;;;;;;;1.70;0.70;;;;;;;11.13;100.00;94079.00;5030794;28;20462;-78
2023/11/05 09:30:10;;;;;;;0.85;0.80;;;;;;;11.02;100.00;94088.53;5022346;28;20449;-78
2023/11/05 09:32:37;;;;;;;1.83;0.93;;;;;;;10.88;100.00;94103.97;5034492;28;20421;-78
2023/11/05 09:35:07;;;;;;;0.70;0.70;;;;;;;10.84;100.00;94104.63;5030085;28;20972;-79
2023/11/05 09:37:33;;;;;;;0.88;0.70;;;;;;;10.85;100.00;94108.06;5031176;28;20785;-79
2023/11/05 09:40:00;;;;;;;4.20;0.70;;;;;;;10.67;100.00;94123.41;5027629;28;20450;-78
2023/11/05 09:42:29;;;;;;;2.50;0.97;;;;;;;10.51;100.00;94111.94;5036180;28;20411;-78
2023/11/05 09:44:56;;;;;;;0.87;0.77;;;;;;;10.62;100.00;94120.97;5029575;28;20403;-78
2023/11/05 09:47:23;;;;;;;1.52;0.80;;;;;;;10.83;100.00;94137.47;5021219;28;20900;-77
2023/11/05 09:49:51;;;;;;;2.27;0.80;;;;;;;10.85;100.00;94156.44;5026080;28;20533;-80
2023/11/05 09:52:17;;;;;;;0.85;0.60;;;;;;;11.01;100.00;94143.31;5038962;28;20449;-80
2023/11/05 09:54:44;;;;;;;4.28;0.90;;;;;;;11.53;100.00;94146.00;5042558;28;20406;-79
2023/11/05 09:57:10;;;;;;;3.50;0.60;;;;;;;11.99;100.00;94179.09;5042838;28;20798;-80
2023/11/05 09:59:45;;;;;;;2.00;0.93;;;;;;;11.95;100.00;94170.25;5043628;28;20395;-80
2023/11/05 10:02:11;;;;;;;2.40;0.77;;;;;;;11.70;100.00;94168.78;5037442;28;20412;-81
2023/11/05 10:04:39;;;;;;;1.35;1.00;;;;;;;11.45;100.00;94173.38;5038825;28;20453;-80
2023/11/05 10:07:06;;;;;;;2.45;0.80;;;;;;;11.07;100.00;94183.56;5032486;28;20526;-81
2023/11/05 10:09:32;;;;;;;2.75;0.82;;;;;;;10.79;100.00;94191.41;5035941;28;20416;-80
2023/11/05 10:11:59;;;;;;;4.40;1.15;;;;;;;10.66;100.00;94211.00;5042002;28;20445;-79
2023/11/05 10:14:25;;;;;;;1.90;0.80;;;;;;;10.75;100.00;94203.75;5043316;28;20919;-80
2023/11/05 10:16:54;;;;;;;1.42;0.80;;;;;;;10.68;100.00;94204.28;5027218;28;20401;-80
2023/11/05 10:19:22;;;;;;;1.98;0.93;;;;;;;10.62;100.00;94210.09;5046575;28;20398;-80
2023/11/05 10:21:48;;;;;;;2.15;1.20;;;;;;;10.51;100.00;94235.44;5042380;28;20886;-84
2023/11/05 10:24:45;;;;;;;1.85;0.90;;;;;;;10.34;100.00;94228.44;5029431;28;20407;-82
2023/11/05 10:27:11;;;;;;;1.30;0.98;;;;;;;10.21;100.00;94227.66;5030153;28;20450;-80
2023/11/05 10:29:39;;;;;;;1.08;0.80;;;;;;;10.20;100.00;94246.47;5028644;28;20411;-81
2023/11/05 10:32:06;;;;;;;2.50;0.80;;;;;;;10.13;100.00;94243.53;5036841;28;20462;-81
2023/11/05 10:34:34;;;;;;;1.65;0.90;;;;;;;10.01;100.00;94252.94;5035214;28;20403;-81
2023/11/05 10:37:00;;;;;;;1.05;0.90;;;;;;;9.85;100.00;94259.91;5033684;28;20474;-82
2023/11/05 10:39:27;;;;;;;13.98;1.60;;;;;;;9.67;100.00;94261.16;5033799;28;20504;-80
2023/11/05 10:41:56;;;;;;;5.10;1.30;;;;;;;9.40;100.00;94266.91;5031546;28;20404;-80
2023/11/05 10:44:23;;;;;;;1.40;0.90;;;;;;;9.19;100.00;94272.91;5032486;28;20406;-81
2023/11/05 10:46:55;;;;;;;15.77;1.38;;;;;;;9.00;100.00;94283.09;5026127;28;20397;-78
2023/11/05 10:49:22;;;;;;;1.42;0.90;;;;;;;8.85;100.00;94279.09;5017894;28;20412;-82
2023/11/05 10:51:48;;;;;;;1.90;1.00;;;;;;;8.79;100.00;94284.88;5021864;28;20986;-81
2023/11/05 10:54:16;;;;;;;6.68;1.30;;;;;;;8.72;100.00;94290.59;5035311;28;20445;-81
2023/11/05 10:56:44;;;;;;;9.15;1.45;;;;;;;8.65;100.00;94290.31;5038163;28;20399;-79
2023/11/05 10:59:32;;;;;;;6.88;1.58;;;;;;;8.60;100.00;94301.03;5041971;28;20409;-78
2023/11/05 11:01:58;;;;;;;1.97;1.20;;;;;;;8.57;100.00;94308.81;5033424;28;20388;-79
2023/11/05 11:04:25;;;;;;;1.02;0.90;;;;;;;8.59;100.00;94302.13;5030225;28;20469;-78
2023/11/05 11:06:51;;;;;;;1.00;0.90;;;;;;;8.64;100.00;94304.59;5022442;28;20405;-79
2023/11/05 11:09:27;;;;;;;1.27;0.80;;;;;;;8.68;100.00;94308.16;5029510;28;20400;-77
2023/11/05 11:11:55;;;;;;;1.23;0.93;;;;;;;8.68;100.00;94312.66;5021482;28;20432;-77
2023/11/05 11:14:24;;;;;;;2.47;1.05;;;;;;;8.65;100.00;94314.03;5025869;28;20914;-78
2023/11/05 11:16:50;;;;;;;1.63;1.00;;;;;;;8.64;100.00;94328.34;5023951;28;20486;-78
2023/11/05 11:19:18;;;;;;;0.90;0.90;;;;;;;8.64;100.00;94338.88;5029439;28;20420;-78
2023/11/05 11:21:49;;;;;;;0.90;0.90;;;;;;;8.61;100.00;94336.84;5031696;28;20455;-78
2023/11/05 11:24:38;;;;;;;2.95;1.00;;;;;;;8.56;100.00;94337.03;5026760;28;20405;-79
2023/11/05 11:27:05;;;;;;;2.30;1.10;;;;;;;8.53;100.00;94346.31;5026476;28;20400;-78
2023/11/05 11:29:34;;;;;;;1.20;0.90;;;;;;;8.52;100.00;94347.41;5036246;28;20393;-78